KANB/ANB METAR and TAF weather

Enter ICAO airport designator
Station Type Date Time Source
KANB METAR 2020/03/31 08:53 UTC NOAA

KANB 310853Z AUTO 05008KT 10SM OVC065 14/08 A2989 RMK AO2 SLP117 T01440078 58024


Station Type Date Time Source
KANB Decoded METAR 2020/03/31 08:53 UTC NOAA

ANNISTON METRO AIRPORT, AL, United States (KANB) 33-35N 085-51W 183M
Mar 31, 2020 - 04:53 AM EDT / 2020.03.31 0853 UTC
Wind: from the NE (050 degrees) at 9 MPH (8 KT):0
Visibility: 10 mile(s):0
Sky conditions: overcast
Temperature: 57.9 F (14.4 C)
Dew Point: 46.0 F (7.8 C)
Relative Humidity: 64%
Pressure (altimeter): 29.89 in. Hg (1012 hPa)
Pressure tendency: 0.07 inches (2.4 hPa) lower than three hours ago
ob: KANB 310853Z AUTO 05008KT 10SM OVC065 14/08 A2989 RMK AO2 SLP117 T01440078 58024
cycle: 9

Station Type Date Time Source
KANB TAF 2020/03/31 06:34 UTC NOAA

TAF KANB 310532Z 3106/0106 00000KT P6SM VCSH OVC090
FM311500 11008KT 3SM SHRA BR OVC024
FM311800 09009KT P6SM SHRA OVC010
FM312100 31009KT P6SM OVC026 PROB30 3121/3124 4SM SHRA BR OVC015
FM010400 33007KT P6SM BKN060

Example: see airport list